Time;durP1;ratioP1;P1;durP2;ratioP2;P2;SDS_P1;SDS_P2;PMS_P1;PMS_P2;Temp;Humidity;BMP_temperature;BMP_pressure;BME280_temperature;BME280_humidity;BME280_pressure;Samples;Min_cycle;Max_cycle;Signal;HPM_P1;HPM_P2
2022/05/22 00:00:15;;;;;;;5.72;0.85;;;;;;;12.08;58.46;98345.20;1788595;80;21032;-75
2022/05/22 00:02:41;;;;;;;2.05;0.80;;;;;;;12.03;58.31;98344.63;1788031;80;21127;-75
2022/05/22 00:05:15;;;;;;;5.80;0.70;;;;;;;12.00;58.13;98340.84;1788139;80;21085;-75
2022/05/22 00:07:42;;;;;;;2.90;0.77;;;;;;;11.95;58.03;98352.14;1788696;79;21876;-75
2022/05/22 00:10:10;;;;;;;7.70;1.15;;;;;;;11.92;58.08;98348.36;1788218;80;21061;-76
2022/05/22 00:12:38;;;;;;;7.22;0.50;;;;;;;11.87;58.11;98344.19;1787908;80;21009;-76
2022/05/22 00:15:06;;;;;;;2.35;0.53;;;;;;;11.83;57.92;98337.38;1788383;80;21143;-77
2022/05/22 00:17:33;;;;;;;14.55;0.75;;;;;;;11.80;58.00;98338.91;1788191;80;21045;-75
2022/05/22 00:20:00;;;;;;;3.33;0.70;;;;;;;11.76;57.29;98338.69;1788299;80;21028;-76
2022/05/22 00:22:26;;;;;;;4.45;0.70;;;;;;;11.76;57.14;98332.58;1788427;80;20993;-76
2022/05/22 00:24:53;;;;;;;3.80;0.60;;;;;;;11.74;57.04;98337.94;1788448;80;21068;-76
2022/05/22 00:27:19;;;;;;;3.02;0.70;;;;;;;11.74;57.29;98337.94;1788602;80;21135;-76
2022/05/22 00:29:46;;;;;;;5.03;0.50;;;;;;;11.70;57.39;98333.77;1762725;80;21026;-76
2022/05/22 00:32:12;;;;;;;6.15;0.80;;;;;;;11.68;57.48;98333.01;1732451;82;21125;-76
2022/05/22 00:34:39;;;;;;;4.35;0.60;;;;;;;11.63;57.68;98335.94;1732290;82;21061;-76
2022/05/22 00:37:06;;;;;;;10.63;0.60;;;;;;;11.59;57.80;98339.66;1729706;81;21058;-76
2022/05/22 00:39:35;;;;;;;5.15;0.50;;;;;;;11.56;57.96;98329.78;1724388;83;21655;-76
2022/05/22 00:42:02;;;;;;;2.42;0.60;;;;;;;11.52;58.27;98327.80;1724399;83;21113;-76
2022/05/22 00:44:30;;;;;;;1.82;0.68;;;;;;;11.48;58.39;98316.59;1724737;83;21114;-76
2022/05/22 00:46:56;;;;;;;15.93;2.25;;;;;;;11.43;58.69;98323.91;1724391;83;21086;-75
2022/05/22 00:49:31;;;;;;;4.42;0.80;;;;;;;11.40;58.86;98324.08;1724663;83;21054;-75
2022/05/22 00:52:05;;;;;;;7.85;0.70;;;;;;;11.36;59.04;98324.33;1724556;83;22415;-76
2022/05/22 00:54:39;;;;;;;11.55;0.70;;;;;;;11.31;59.34;98317.55;1724861;83;21007;-75
2022/05/22 00:57:20;;;;;;;11.25;0.90;;;;;;;11.26;59.66;98320.05;1724912;83;21015;-76
2022/05/22 00:59:50;;;;;;;1.98;0.80;;;;;;;11.19;59.92;98320.02;1724769;83;21573;-76
2022/05/22 01:02:17;;;;;;;5.70;0.80;;;;;;;11.13;60.33;98312.86;1724656;83;21039;-75
2022/05/22 01:04:44;;;;;;;2.20;0.85;;;;;;;11.08;60.66;98321.48;1724895;83;21155;-75
2022/05/22 01:07:11;;;;;;;8.35;1.07;;;;;;;11.05;61.05;98309.80;1724913;83;21554;-74
2022/05/22 01:09:38;;;;;;;1.00;0.60;;;;;;;11.02;61.20;98316.55;1724515;83;21581;-74
2022/05/22 01:12:10;;;;;;;6.45;0.80;;;;;;;11.01;61.46;98314.87;1724316;83;20995;-76
2022/05/22 01:14:37;;;;;;;2.67;0.88;;;;;;;10.97;61.41;98314.64;1724327;83;21113;-74
2022/05/22 01:17:08;;;;;;;5.83;1.22;;;;;;;10.96;61.56;98306.34;1700011;83;21134;-75
2022/05/22 01:19:36;;;;;;;0.88;0.60;;;;;;;10.91;61.42;98304.44;1724367;83;21098;-75
2022/05/22 01:22:06;;;;;;;0.62;0.60;;;;;;;10.90;61.63;98301.45;1724740;83;21059;-74
2022/05/22 01:24:36;;;;;;;4.90;0.80;;;;;;;10.85;61.76;98296.43;1724408;83;21039;-75
2022/05/22 01:27:05;;;;;;;2.58;0.85;;;;;;;10.83;62.06;98288.25;1724441;83;21050;-75
2022/05/22 01:29:49;;;;;;;4.80;1.05;;;;;;;10.80;62.25;98287.11;1724051;83;21896;-75
2022/05/22 01:32:15;;;;;;;2.45;1.00;;;;;;;10.75;62.44;98281.61;1724446;83;21498;-75
2022/05/22 01:34:43;;;;;;;5.58;0.70;;;;;;;10.72;62.65;98285.72;1724410;83;21100;-75
2022/05/22 01:37:10;;;;;;;4.30;0.80;;;;;;;10.69;62.85;98286.36;1724326;81;21003;-75
2022/05/22 01:39:40;;;;;;;7.78;0.90;;;;;;;10.63;63.19;98283.61;1724347;83;21011;-75
2022/05/22 01:42:07;;;;;;;5.28;0.93;;;;;;;10.61;63.30;98277.59;1724443;83;22113;-75
2022/05/22 01:44:35;;;;;;;1.75;0.80;;;;;;;10.59;63.43;98278.11;1724620;83;21589;-76
2022/05/22 01:47:02;;;;;;;1.67;1.00;;;;;;;10.56;63.59;98278.31;1724332;83;21545;-75
2022/05/22 01:49:30;;;;;;;3.12;0.70;;;;;;;10.54;63.78;98268.31;1724428;83;21003;-75
2022/05/22 01:51:59;;;;;;;2.08;0.90;;;;;;;10.52;63.91;98264.92;1724257;83;21046;-75
2022/05/22 01:54:26;;;;;;;4.03;0.88;;;;;;;10.52;63.97;98267.55;1724385;83;21499;-75
2022/05/22 01:56:55;;;;;;;4.87;1.17;;;;;;;10.49;64.15;98262.45;1726879;82;21089;-75
2022/05/22 01:59:22;;;;;;;7.05;1.37;;;;;;;10.50;64.17;98266.80;1730517;82;21605;-74
2022/05/22 02:01:51;;;;;;;3.20;0.82;;;;;;;10.49;64.33;98260.70;1729233;82;21042;-76
2022/05/22 02:04:18;;;;;;;4.65;0.75;;;;;;;10.48;64.29;98258.16;1730381;82;21069;-75
2022/05/22 02:09:12;;;;;;;3.08;1.10;;;;;;;10.48;64.35;98254.20;1690538;82;21096;-75
2022/05/22 02:11:41;;;;;;;7.37;2.58;;;;;;;10.47;64.34;98248.08;1729511;82;20998;-76
2022/05/22 02:14:07;;;;;;;3.95;1.60;;;;;;;10.46;64.43;98254.29;1730942;82;20994;-75
2022/05/22 02:16:35;;;;;;;1.20;0.80;;;;;;;10.45;64.58;98243.85;1730362;82;21568;-75
2022/05/22 02:19:02;;;;;;;2.80;0.82;;;;;;;10.41;64.65;98247.95;1730658;82;21510;-75
2022/05/22 02:21:29;;;;;;;3.70;0.90;;;;;;;10.44;64.68;98243.45;1730630;82;21192;-75
2022/05/22 02:23:56;;;;;;;3.12;1.00;;;;;;;10.43;64.66;98236.05;1730445;82;21069;-75
2022/05/22 02:26:22;;;;;;;4.12;0.90;;;;;;;10.43;64.76;98228.62;1726681;82;21065;-74
2022/05/22 02:28:49;;;;;;;5.17;1.00;;;;;;;10.45;64.74;98225.44;1724636;83;21061;-75
2022/05/22 02:31:16;;;;;;;1.60;0.90;;;;;;;10.46;64.82;98225.84;1724410;83;22248;-74
2022/05/22 02:33:45;;;;;;;2.35;1.25;;;;;;;10.47;64.83;98224.89;1724426;83;21103;-75
2022/05/22 02:36:14;;;;;;;4.95;1.30;;;;;;;10.47;64.96;98223.57;1724717;83;21486;-76
2022/05/22 02:38:41;;;;;;;1.77;1.37;;;;;;;10.48;65.05;98222.65;1724530;81;21002;-74
2022/05/22 02:41:12;;;;;;;3.10;1.15;;;;;;;10.48;65.13;98218.70;1724628;83;21447;-74
2022/05/22 02:43:41;;;;;;;4.53;1.30;;;;;;;10.50;65.44;98214.20;1724843;83;22445;-74
2022/05/22 02:46:10;;;;;;;2.40;1.07;;;;;;;10.53;65.48;98212.72;1724535;83;21590;-76
2022/05/22 02:48:38;;;;;;;4.80;0.90;;;;;;;10.60;65.49;98215.39;1724788;83;21042;-75
2022/05/22 02:51:06;;;;;;;2.00;1.10;;;;;;;10.65;65.37;98212.03;1724550;83;21553;-75
2022/05/22 02:53:33;;;;;;;3.33;1.00;;;;;;;10.69;65.40;98200.87;1699771;83;21051;-75
2022/05/22 02:56:18;;;;;;;1.45;0.80;;;;;;;10.73;65.30;98199.78;1723829;83;21245;-76
2022/05/22 02:58:46;;;;;;;3.67;1.07;;;;;;;10.76;65.44;98187.30;1721872;83;21011;-76
2022/05/22 03:01:13;;;;;;;3.50;1.20;;;;;;;10.81;65.38;98184.86;1724517;83;21002;-76
2022/05/22 03:03:40;;;;;;;7.58;0.88;;;;;;;10.82;65.52;98187.87;1724657;83;21034;-75
2022/05/22 03:08:53;;;;;;;5.67;1.15;;;;;;;10.86;65.71;98178.86;1724443;83;21176;-76
2022/05/22 03:11:19;;;;;;;2.33;1.17;;;;;;;10.90;65.70;98183.87;1724439;83;21051;-76
2022/05/22 03:13:46;;;;;;;5.92;1.37;;;;;;;10.93;65.84;98178.44;1724589;83;21078;-74
2022/05/22 03:16:13;;;;;;;4.70;0.88;;;;;;;10.96;66.00;98183.53;1724819;83;21427;-76
2022/05/22 03:18:48;;;;;;;2.60;1.10;;;;;;;11.00;65.85;98165.77;1723271;83;21169;-75
2022/05/22 03:21:16;;;;;;;4.25;1.17;;;;;;;11.05;66.05;98163.72;1724529;83;22085;-74
2022/05/22 03:23:43;;;;;;;2.27;1.30;;;;;;;11.07;66.08;98184.20;1724510;83;21022;-75
2022/05/22 03:26:11;;;;;;;4.15;1.00;;;;;;;11.09;66.21;98153.38;1724531;83;21105;-75
2022/05/22 03:28:38;;;;;;;2.42;0.90;;;;;;;11.11;66.17;98160.73;1699862;83;21068;-75
2022/05/22 03:31:04;;;;;;;1.80;0.90;;;;;;;11.14;66.26;98156.58;1724570;83;21121;-75
2022/05/22 03:33:32;;;;;;;3.77;1.20;;;;;;;11.17;66.38;98148.15;1724681;83;21839;-74
2022/05/22 03:35:59;;;;;;;5.75;1.15;;;;;;;11.17;66.44;98164.78;1724604;83;21526;-74
2022/05/22 03:38:26;;;;;;;10.50;1.32;;;;;;;11.18;66.47;98146.75;1728423;81;21090;-74
2022/05/22 03:40:55;;;;;;;6.55;1.32;;;;;;;11.23;66.50;98148.64;1731305;82;21014;-74
2022/05/22 03:43:22;;;;;;;1.90;0.90;;;;;;;11.25;66.49;98148.55;1732202;82;21474;-75
2022/05/22 03:45:49;;;;;;;11.03;1.55;;;;;;;11.26;66.37;98155.48;1732060;82;21124;-75
2022/05/22 03:48:16;;;;;;;5.92;1.20;;;;;;;11.26;66.45;98144.95;1732366;82;21912;-76
2022/05/22 03:50:43;;;;;;;4.12;1.30;;;;;;;11.26;66.42;98141.87;1732243;82;21568;-76
2022/05/22 03:53:10;;;;;;;5.83;1.70;;;;;;;11.27;66.65;98142.72;1703300;82;21418;-74
2022/05/22 03:55:42;;;;;;;1.87;1.35;;;;;;;11.27;66.59;98132.19;1731705;82;21510;-75
2022/05/22 03:58:10;;;;;;;4.95;1.40;;;;;;;11.28;66.71;98139.13;1732399;82;21316;-74
2022/05/22 04:00:37;;;;;;;3.85;1.22;;;;;;;11.29;66.50;98144.78;1732064;82;21061;-75
2022/05/22 04:03:05;;;;;;;4.50;1.82;;;;;;;11.29;66.45;98140.35;1735698;80;22045;-74
2022/05/22 04:05:32;;;;;;;4.05;1.50;;;;;;;11.30;66.68;98130.20;1735771;82;21707;-74
2022/05/22 04:08:03;;;;;;;2.45;1.42;;;;;;;11.30;67.03;98135.95;1735896;82;21664;-75
2022/05/22 04:10:31;;;;;;;2.35;1.60;;;;;;;11.30;66.73;98133.32;1735513;82;21865;-75
2022/05/22 04:12:59;;;;;;;1.30;1.10;;;;;;;11.31;66.93;98135.00;1735948;82;21317;-74
2022/05/22 04:15:27;;;;;;;1.60;1.32;;;;;;;11.32;66.58;98141.97;1735873;82;21102;-74
2022/05/22 04:17:55;;;;;;;3.90;1.40;;;;;;;11.33;66.45;98127.84;1735862;82;21016;-75
2022/05/22 04:20:24;;;;;;;3.15;1.30;;;;;;;11.37;66.46;98128.53;1736308;82;21067;-76
2022/05/22 04:25:40;;;;;;;2.77;1.20;;;;;;;11.39;65.78;98128.80;1749502;81;21050;-74
2022/05/22 04:28:06;;;;;;;1.62;1.25;;;;;;;11.39;65.45;98126.17;1723686;83;21110;-73
2022/05/22 04:30:34;;;;;;;3.02;1.17;;;;;;;11.40;65.27;98129.20;1723836;83;21073;-77
2022/05/22 04:33:02;;;;;;;2.77;1.40;;;;;;;11.42;65.38;98129.10;1723541;83;21545;-76
2022/05/22 04:35:29;;;;;;;1.55;1.32;;;;;;;11.42;65.42;98141.80;1732292;82;22232;-77
2022/05/22 04:38:02;;;;;;;5.30;1.30;;;;;;;11.44;65.08;98122.79;1730478;81;21600;-76
2022/05/22 04:40:29;;;;;;;3.77;1.30;;;;;;;11.47;65.21;98130.98;1724347;83;20994;-77
2022/05/22 04:42:56;;;;;;;2.40;1.42;;;;;;;11.52;65.30;98125.81;1724446;83;21009;-76
2022/05/22 04:45:23;;;;;;;2.12;1.00;;;;;;;11.58;64.60;98123.26;1724470;83;21332;-76
2022/05/22 04:47:57;;;;;;;2.15;1.32;;;;;;;11.62;64.73;98114.73;1724889;83;21172;-77
2022/05/22 04:50:44;;;;;;;3.10;1.20;;;;;;;11.63;64.35;98111.13;1724210;83;21133;-77
2022/05/22 04:53:22;;;;;;;10.28;1.80;;;;;;;11.66;64.60;98116.22;1699284;83;21034;-77
2022/05/22 04:56:08;;;;;;;4.33;1.27;;;;;;;11.71;64.97;98111.51;1724165;83;21062;-75
2022/05/22 04:58:36;;;;;;;1.50;1.25;;;;;;;11.75;64.79;98118.30;1722871;83;20986;-74
2022/05/22 05:01:08;;;;;;;5.40;1.47;;;;;;;11.78;64.56;98112.81;1723622;83;21241;-77
2022/05/22 05:03:36;;;;;;;2.25;1.40;;;;;;;11.82;64.23;98110.86;1724177;83;21039;-77
2022/05/22 05:06:03;;;;;;;1.30;1.20;;;;;;;11.83;64.01;98113.38;1724845;83;21011;-78
2022/05/22 05:08:30;;;;;;;2.12;1.20;;;;;;;11.84;63.83;98122.98;1724658;83;20971;-74
2022/05/22 05:10:59;;;;;;;2.05;1.10;;;;;;;11.85;63.79;98111.52;1723205;83;20963;-75
2022/05/22 05:13:28;;;;;;;3.05;1.37;;;;;;;11.89;64.01;98119.59;1723805;83;21793;-74
2022/05/22 05:16:01;;;;;;;3.50;1.00;;;;;;;11.90;62.98;98118.66;1724550;83;21565;-76
2022/05/22 05:18:30;;;;;;;2.37;1.15;;;;;;;11.95;63.16;98118.86;1724294;83;21038;-76
2022/05/22 05:21:03;;;;;;;1.92;1.05;;;;;;;11.98;62.90;98116.88;1724693;83;21075;-76
2022/05/22 05:23:30;;;;;;;3.67;1.12;;;;;;;12.04;63.14;98123.57;1724311;83;21121;-77
2022/05/22 05:26:16;;;;;;;3.87;0.90;;;;;;;12.08;62.62;98122.42;1723400;83;21519;-75
2022/05/22 05:28:43;;;;;;;1.05;0.80;;;;;;;12.11;60.86;98130.62;1724041;83;21094;-76
2022/05/22 05:31:10;;;;;;;1.70;0.80;;;;;;;12.11;60.56;98114.33;1724536;83;21106;-77
2022/05/22 05:33:38;;;;;;;1.95;0.90;;;;;;;12.14;59.93;98106.22;1724225;83;20971;-75
2022/05/22 05:36:23;;;;;;;2.52;0.90;;;;;;;12.17;60.28;98110.44;1724543;83;21999;-76
2022/05/22 05:39:10;;;;;;;1.02;0.90;;;;;;;12.17;59.54;98140.31;1723853;81;21214;-76
2022/05/22 05:41:41;;;;;;;10.13;1.10;;;;;;;12.16;59.69;98115.36;1722895;83;21054;-75
2022/05/22 05:44:09;;;;;;;5.28;0.90;;;;;;;12.17;60.03;98113.95;1724516;83;21553;-77
2022/05/22 05:46:39;;;;;;;0.70;0.70;;;;;;;12.21;60.21;98097.45;1723123;83;21054;-76
2022/05/22 05:49:08;;;;;;;1.47;0.75;;;;;;;12.23;59.44;98110.89;1724315;83;21007;-76
2022/05/22 05:51:36;;;;;;;1.45;0.90;;;;;;;12.31;59.52;98112.22;1724375;83;21149;-76
2022/05/22 05:54:04;;;;;;;4.67;1.25;;;;;;;12.38;59.21;98124.05;1724655;83;22241;-76
2022/05/22 05:56:40;;;;;;;4.10;0.98;;;;;;;12.42;58.59;98106.62;1689910;83;21077;-76
2022/05/22 05:59:08;;;;;;;1.62;1.00;;;;;;;12.41;58.41;98102.77;1722437;83;21118;-74
2022/05/22 06:01:37;;;;;;;2.95;1.05;;;;;;;12.40;59.23;98115.56;1722443;83;20995;-75
2022/05/22 06:04:05;;;;;;;2.33;0.98;;;;;;;12.35;59.80;98118.49;1724728;83;21113;-75
2022/05/22 06:06:32;;;;;;;1.67;0.93;;;;;;;12.31;60.12;98120.13;1724753;83;21027;-77
2022/05/22 06:09:00;;;;;;;17.35;5.12;;;;;;;12.26;60.71;98101.95;1724577;83;21113;-76
2022/05/22 06:11:29;;;;;;;20.08;7.40;;;;;;;12.22;61.58;98101.31;1722592;82;20998;-75
2022/05/22 06:13:57;;;;;;;4.60;2.08;;;;;;;12.17;62.14;98102.53;1728544;83;21043;-76
2022/05/22 06:16:26;;;;;;;4.28;1.30;;;;;;;12.09;62.84;98100.40;1727123;82;21130;-76
2022/05/22 06:18:57;;;;;;;3.62;0.90;;;;;;;12.00;63.56;98108.88;1724137;83;21050;-76
2022/05/22 06:21:23;;;;;;;3.98;0.93;;;;;;;11.94;63.60;98121.14;1724502;83;21066;-76
2022/05/22 06:23:51;;;;;;;1.80;1.30;;;;;;;11.86;63.97;98122.89;1724885;83;20990;-76
2022/05/22 06:26:20;;;;;;;1.70;1.12;;;;;;;11.80;64.65;98114.91;1718725;83;21042;-75
2022/05/22 06:28:54;;;;;;;7.80;1.52;;;;;;;11.75;64.66;98115.66;1687623;83;21928;-77
2022/05/22 06:31:34;;;;;;;4.67;1.15;;;;;;;11.72;65.30;98109.27;1675012;83;21145;-77
2022/05/22 06:34:09;;;;;;;1.20;1.10;;;;;;;11.76;65.32;98106.80;1712509;83;21074;-77
2022/05/22 06:36:46;;;;;;;6.20;1.05;;;;;;;11.85;65.22;98110.20;1723498;83;21419;-76
2022/05/22 06:42:29;;;;;;;1.10;1.00;;;;;;;11.97;64.23;98116.52;1732398;82;21125;-75
2022/05/22 06:45:06;;;;;;;2.98;0.88;;;;;;;11.98;64.56;98123.95;1731780;82;21113;-75
2022/05/22 06:47:35;;;;;;;2.27;0.90;;;;;;;11.97;64.66;98105.11;1732003;82;21014;-76
2022/05/22 06:50:13;;;;;;;5.67;1.00;;;;;;;11.97;64.66;98112.56;1697718;82;21609;-76
2022/05/22 06:52:41;;;;;;;6.15;1.00;;;;;;;11.97;64.31;98109.93;1730716;82;21030;-77
2022/05/22 06:55:19;;;;;;;3.30;1.10;;;;;;;11.98;64.00;98104.17;1730323;82;21576;-77
2022/05/22 06:57:49;;;;;;;1.57;1.02;;;;;;;11.99;64.34;98112.47;1727719;82;21005;-76
2022/05/22 07:00:18;;;;;;;2.08;0.90;;;;;;;11.98;64.09;98113.40;1731619;82;21062;-75
2022/05/22 07:02:48;;;;;;;2.20;0.98;;;;;;;11.93;64.64;98111.53;1732049;82;21078;-74
2022/05/22 07:05:28;;;;;;;1.50;1.07;;;;;;;11.88;64.83;98119.68;1700089;82;21101;-76
2022/05/22 07:08:13;;;;;;;1.20;0.88;;;;;;;11.87;65.20;98116.21;1732467;82;21113;-74
2022/05/22 07:13:38;;;;;;;1.50;0.82;;;;;;;11.87;64.51;98106.98;1730767;82;21023;-75
2022/05/22 07:16:23;;;;;;;2.08;1.20;;;;;;;11.89;64.54;98111.69;1732476;82;21274;-74
2022/05/22 07:18:51;;;;;;;4.20;0.98;;;;;;;11.88;64.12;98135.05;1730992;82;21580;-75
2022/05/22 07:21:24;;;;;;;3.50;1.00;;;;;;;11.84;64.30;98108.48;1730426;82;21131;-75
2022/05/22 07:24:06;;;;;;;1.90;1.00;;;;;;;11.81;64.10;98120.53;1729336;82;21019;-74
2022/05/22 07:26:37;;;;;;;2.92;1.02;;;;;;;11.77;64.53;98108.50;1691611;82;22023;-75
2022/05/22 07:29:22;;;;;;;2.12;1.20;;;;;;;11.76;64.72;98113.87;1732460;82;21079;-76
2022/05/22 07:32:08;;;;;;;4.95;1.15;;;;;;;11.73;64.90;98114.05;1732418;82;21038;-75
2022/05/22 07:34:51;;;;;;;8.38;1.00;;;;;;;11.68;64.63;98110.37;1728058;82;22212;-75
2022/05/22 07:37:19;;;;;;;3.47;0.85;;;;;;;11.66;64.61;98114.90;1711495;82;21074;-75
2022/05/22 07:39:47;;;;;;;2.20;1.07;;;;;;;11.64;65.03;98119.42;1724696;81;21514;-77
2022/05/22 07:42:19;;;;;;;6.40;1.10;;;;;;;11.65;64.59;98106.16;1721905;83;21475;-76
2022/05/22 07:44:51;;;;;;;2.87;1.10;;;;;;;11.62;64.55;98108.14;1724691;83;21055;-77
2022/05/22 07:47:25;;;;;;;0.95;0.78;;;;;;;11.58;64.91;98110.56;1722424;83;21336;-76
2022/05/22 07:52:57;;;;;;;2.40;0.80;;;;;;;11.46;66.48;98130.12;1724386;83;21557;-75
2022/05/22 07:55:26;;;;;;;1.27;0.80;;;;;;;11.33;67.57;98138.38;1721020;83;21085;-76
2022/05/22 07:58:02;;;;;;;3.00;0.90;;;;;;;11.26;68.17;98119.94;1724199;83;21065;-76
2022/05/22 08:00:34;;;;;;;1.15;1.05;;;;;;;11.24;68.91;98117.40;1722571;83;21502;-75
2022/05/22 08:03:11;;;;;;;4.35;0.90;;;;;;;11.24;69.04;98119.20;1724144;83;21090;-76
2022/05/22 08:05:39;;;;;;;2.52;0.93;;;;;;;11.24;69.43;98120.03;1728597;82;21117;-76
2022/05/22 08:08:07;;;;;;;2.10;0.98;;;;;;;11.30;69.30;98122.79;1730287;82;21077;-76
2022/05/22 08:10:40;;;;;;;5.03;0.80;;;;;;;11.42;70.32;98118.09;1728179;82;21930;-77
2022/05/22 08:13:10;;;;;;;1.85;0.80;;;;;;;11.64;69.77;98110.20;1730597;82;21813;-77
2022/05/22 08:15:38;;;;;;;1.77;0.90;;;;;;;11.86;68.91;98118.45;1729118;82;20920;-75
2022/05/22 08:18:07;;;;;;;0.70;0.70;;;;;;;12.06;67.06;98123.00;1722064;83;21506;-74
2022/05/22 08:20:36;;;;;;;1.25;0.98;;;;;;;12.19;65.35;98120.44;1724606;83;21027;-76
2022/05/22 08:23:09;;;;;;;1.92;0.60;;;;;;;12.29;65.58;98118.03;1724660;83;21088;-76
2022/05/22 08:25:45;;;;;;;1.95;0.70;;;;;;;12.42;64.35;98118.94;1724711;83;21067;-77
2022/05/22 08:28:13;;;;;;;1.12;0.80;;;;;;;12.48;63.70;98120.36;1724766;83;21122;-76
2022/05/22 08:30:41;;;;;;;3.22;0.98;;;;;;;12.40;64.60;98124.80;1724576;83;21491;-75
2022/05/22 08:33:08;;;;;;;6.03;0.80;;;;;;;12.32;64.69;98135.83;1724737;83;21121;-75
2022/05/22 08:35:37;;;;;;;0.82;0.82;;;;;;;12.16;65.40;98131.17;1724781;83;21004;-76
2022/05/22 08:38:05;;;;;;;2.77;0.98;;;;;;;11.96;66.82;98137.70;1724255;83;21243;-76
2022/05/22 08:40:57;;;;;;;4.08;0.78;;;;;;;11.86;67.06;98139.54;1729744;81;21054;-77
2022/05/22 08:43:36;;;;;;;0.60;0.60;;;;;;;11.83;67.81;98139.73;1714389;82;21074;-76
2022/05/22 08:46:21;;;;;;;1.27;0.68;;;;;;;11.88;67.69;98127.14;1732438;82;21045;-77
2022/05/22 08:48:56;;;;;;;6.90;0.93;;;;;;;12.02;69.20;98128.06;1732225;82;21518;-75
2022/05/22 08:51:34;;;;;;;0.60;0.55;;;;;;;12.23;68.74;98121.92;1732443;82;21106;-76
2022/05/22 08:54:24;;;;;;;0.78;0.78;;;;;;;12.33;66.56;98130.10;1728863;82;21046;-77
2022/05/22 08:59:32;;;;;;;1.60;1.00;;;;;;;12.29;66.73;98137.81;1697806;82;21078;-78
2022/05/22 09:02:31;;;;;;;2.33;1.02;;;;;;;12.21;67.39;98136.52;1732062;82;21348;-75
2022/05/22 09:05:02;;;;;;;1.65;1.10;;;;;;;12.23;68.36;98138.58;1732089;82;21551;-75
2022/05/22 09:07:57;;;;;;;3.98;0.90;;;;;;;12.18;67.76;98139.34;1732345;82;21065;-76
2022/05/22 09:11:12;;;;;;;1.62;0.90;;;;;;;12.11;67.84;98135.41;1732347;82;21545;-75
2022/05/22 09:13:50;;;;;;;0.85;0.82;;;;;;;11.99;67.50;98137.03;1732467;82;21074;-77
2022/05/22 09:16:28;;;;;;;2.62;1.07;;;;;;;11.96;68.76;98141.66;1732234;82;20991;-76
2022/05/22 09:19:23;;;;;;;1.15;0.98;;;;;;;11.95;68.60;98147.38;1732168;82;21224;-74
2022/05/22 09:21:58;;;;;;;0.93;0.90;;;;;;;11.81;68.09;98138.14;1732427;82;21108;-76
2022/05/22 09:24:49;;;;;;;1.85;0.70;;;;;;;11.81;68.09;98138.14;1732457;82;20995;-75
2022/05/22 09:27:33;;;;;;;3.02;0.75;;;;;;;11.74;69.24;98136.84;1732358;82;20986;-76
2022/05/22 09:30:48;;;;;;;0.80;0.80;;;;;;;11.71;69.35;98141.80;1732265;82;20999;-75
2022/05/22 09:33:41;;;;;;;0.90;0.90;;;;;;;11.62;69.92;98151.61;1732344;82;21213;-76
2022/05/22 09:36:18;;;;;;;4.10;0.90;;;;;;;11.38;70.92;98160.05;1732075;82;21045;-76
2022/05/22 09:38:59;;;;;;;1.20;1.00;;;;;;;11.11;72.10;98156.79;1732208;82;21057;-76
2022/05/22 09:42:05;;;;;;;1.62;0.85;;;;;;;10.83;73.86;98168.53;1732209;81;21017;-75
2022/05/22 09:44:48;;;;;;;1.98;1.12;;;;;;;10.60;75.05;98173.30;1732592;82;21132;-76
2022/05/22 09:47:35;;;;;;;1.47;0.72;;;;;;;10.40;77.51;98175.25;1731919;82;21123;-76
2022/05/22 09:50:17;;;;;;;0.88;0.68;;;;;;;10.27;79.67;98164.16;1731719;82;21109;-75
2022/05/22 09:52:52;;;;;;;1.20;1.05;;;;;;;10.23;81.39;98189.77;1732095;82;21057;-76
2022/05/22 09:55:35;;;;;;;3.25;0.82;;;;;;;10.20;81.64;98171.53;1732181;82;21427;-75
2022/05/22 09:58:40;;;;;;;1.00;0.95;;;;;;;10.18;82.07;98179.97;1731838;82;21081;-76
2022/05/22 10:01:15;;;;;;;0.82;0.82;;;;;;;10.13;82.15;98177.59;1732187;82;21707;-77
2022/05/22 10:04:05;;;;;;;1.52;1.10;;;;;;;10.10;82.78;98174.28;1731938;82;21054;-77
2022/05/22 10:07:05;;;;;;;1.20;1.10;;;;;;;10.11;83.53;98166.80;1732239;82;21600;-76
2022/05/22 10:09:49;;;;;;;1.65;1.05;;;;;;;10.23;83.83;98170.05;1732064;82;21082;-77
2022/05/22 10:12:38;;;;;;;1.25;1.02;;;;;;;10.32;83.32;98169.59;1732664;82;21096;-76
2022/05/22 10:15:40;;;;;;;1.65;0.95;;;;;;;10.44;82.17;98177.72;1735267;81;21154;-78
2022/05/22 10:18:17;;;;;;;1.45;1.32;;;;;;;10.50;82.42;98169.50;1735402;82;21128;-77
2022/05/22 10:20:49;;;;;;;1.35;1.17;;;;;;;10.54;82.73;98199.94;1731420;82;21057;-74
2022/05/22 10:23:55;;;;;;;1.10;1.00;;;;;;;10.45;81.25;98212.30;1736097;82;21109;-75
2022/05/22 10:26:45;;;;;;;;;;;;;;;10.33;81.65;98181.80;1738462;82;21069;-76
2022/05/22 10:29:25;;;;;;;1.87;1.20;;;;;;;10.24;83.09;98182.28;1736073;82;21714;-76
2022/05/22 10:32:12;;;;;;;0.98;0.98;;;;;;;10.22;83.60;98180.17;1735350;82;21187;-75
2022/05/22 10:34:47;;;;;;;1.07;0.88;;;;;;;10.25;84.57;98186.59;1735849;82;21033;-76
2022/05/22 10:37:49;;;;;;;1.67;1.00;;;;;;;10.26;84.61;98185.67;1735375;81;21719;-75
2022/05/22 10:40:20;;;;;;;1.35;1.00;;;;;;;10.27;84.95;98190.00;1736241;81;21105;-76
2022/05/22 10:42:50;;;;;;;1.62;1.10;;;;;;;10.25;84.96;98185.75;1738514;82;22233;-76
2022/05/22 10:45:36;;;;;;;0.70;0.70;;;;;;;10.27;85.54;98198.33;1738675;82;21044;-76
2022/05/22 10:48:21;;;;;;;2.20;0.80;;;;;;;10.31;86.55;98180.16;1738535;82;20966;-76
2022/05/22 10:51:08;;;;;;;1.10;0.82;;;;;;;10.39;86.63;98189.35;1738397;82;21117;-76
2022/05/22 10:53:53;;;;;;;1.22;1.05;;;;;;;10.37;88.16;98196.48;1738386;82;21718;-76
2022/05/22 10:56:26;;;;;;;0.85;0.80;;;;;;;10.33;87.27;98190.99;1738616;82;21560;-76
2022/05/22 10:59:04;;;;;;;1.98;1.10;;;;;;;10.32;87.24;98203.78;1738586;82;21052;-75
2022/05/22 11:01:38;;;;;;;1.20;1.10;;;;;;;10.27;87.20;98197.89;1738520;82;21095;-77
2022/05/22 11:04:10;;;;;;;1.67;0.80;;;;;;;10.24;88.03;98188.85;1738387;82;21073;-78
2022/05/22 11:06:52;;;;;;;2.75;0.82;;;;;;;10.24;87.83;98190.16;1738661;82;20998;-76
2022/05/22 11:09:25;;;;;;;2.70;0.90;;;;;;;10.25;88.25;98198.89;1738805;82;22696;-77
2022/05/22 11:11:51;;;;;;;2.40;0.90;;;;;;;10.27;88.90;98194.39;1738422;82;21061;-76
2022/05/22 11:14:21;;;;;;;2.02;0.90;;;;;;;10.28;88.40;98193.00;1738822;82;21050;-75
2022/05/22 11:16:48;;;;;;;1.62;1.30;;;;;;;10.31;88.03;98209.92;1739037;82;21531;-75
2022/05/22 11:19:24;;;;;;;1.17;1.07;;;;;;;10.34;87.81;98203.22;1738449;82;21474;-75
2022/05/22 11:22:18;;;;;;;2.30;1.50;;;;;;;10.28;87.54;98207.45;1738810;82;21102;-75
2022/05/22 11:25:21;;;;;;;2.50;1.30;;;;;;;10.21;87.25;98220.55;1738454;82;21058;-75
2022/05/22 11:28:41;;;;;;;1.10;1.10;;;;;;;10.12;87.05;98208.77;1738631;82;21558;-75
2022/05/22 11:31:41;;;;;;;1.65;0.78;;;;;;;10.12;87.05;98201.32;1738194;81;21010;-76
2022/05/22 11:34:37;;;;;;;0.82;0.75;;;;;;;10.16;85.50;98205.02;1738188;82;21109;-76
2022/05/22 11:37:37;;;;;;;2.25;1.02;;;;;;;10.25;85.31;98204.98;1738661;82;21857;-76
2022/05/22 11:40:47;;;;;;;1.02;0.68;;;;;;;10.35;85.15;98221.98;1739608;81;21010;-75
2022/05/22 11:43:44;;;;;;;0.70;0.70;;;;;;;10.38;83.79;98209.99;1759875;81;21609;-76
2022/05/22 11:46:51;;;;;;;0.90;0.70;;;;;;;10.46;83.58;98224.52;1759500;81;21097;-77
2022/05/22 11:49:48;;;;;;;1.02;0.93;;;;;;;10.48;83.50;98219.55;1760122;81;21043;-76
2022/05/22 11:55:34;;;;;;;1.22;0.90;;;;;;;10.51;83.79;98234.32;1759801;81;21580;-76
2022/05/22 11:58:27;;;;;;;1.30;0.80;;;;;;;10.49;83.47;98238.34;1741094;81;21081;-76
2022/05/22 12:01:15;;;;;;;0.70;0.70;;;;;;;10.51;83.90;98235.16;1759790;81;21073;-77
2022/05/22 12:04:07;;;;;;;0.70;0.70;;;;;;;10.52;83.53;98233.37;1751182;81;21000;-75
2022/05/22 12:06:57;;;;;;;0.70;0.70;;;;;;;10.52;83.83;98234.23;1753737;81;21517;-78
2022/05/22 12:09:41;;;;;;;0.70;0.70;;;;;;;10.55;83.67;98237.15;1753627;81;21011;-75
2022/05/22 12:12:14;;;;;;;0.78;0.78;;;;;;;10.52;84.08;98247.39;1753778;81;20984;-77
2022/05/22 12:15:10;;;;;;;1.25;0.70;;;;;;;10.47;84.28;98239.34;1753497;81;21602;-76
2022/05/22 12:17:43;;;;;;;0.78;0.70;;;;;;;10.41;85.01;98241.38;1754506;81;21016;-77
2022/05/22 12:20:34;;;;;;;0.62;0.62;;;;;;;10.32;84.85;98243.21;1732347;82;21086;-77
2022/05/22 12:23:20;;;;;;;2.22;0.80;;;;;;;10.29;84.91;98249.91;1731812;82;21136;-77
2022/05/22 12:26:04;;;;;;;1.95;0.78;;;;;;;10.23;85.04;98249.75;1732106;82;20994;-77
2022/05/22 12:29:11;;;;;;;0.90;0.90;;;;;;;10.22;84.99;98258.59;1753693;81;21119;-76
2022/05/22 12:31:49;;;;;;;0.75;0.75;;;;;;;10.23;85.32;98252.86;1753740;81;21115;-75